sensor_id;sensor_type;location;lat;lon;timestamp;P1;durP1;ratioP1;P2;durP2;ratioP2
62056;SDS011;48016;50.284;18.860;2024-01-11T00:01:11;146.30;;;66.80;;
62056;SDS011;48016;50.284;18.860;2024-01-11T00:03:39;146.90;;;70.40;;
62056;SDS011;48016;50.284;18.860;2024-01-11T00:06:05;151.90;;;67.80;;
62056;SDS011;48016;50.284;18.860;2024-01-11T00:08:32;150.40;;;72.10;;
62056;SDS011;48016;50.284;18.860;2024-01-11T00:10:59;153.70;;;69.50;;
62056;SDS011;48016;50.284;18.860;2024-01-11T00:13:25;150.50;;;68.80;;
62056;SDS011;48016;50.284;18.860;2024-01-11T00:15:52;149.60;;;68.20;;
62056;SDS011;48016;50.284;18.860;2024-01-11T00:18:19;147.80;;;67.70;;
62056;SDS011;48016;50.284;18.860;2024-01-11T00:20:46;151.80;;;70.70;;
62056;SDS011;48016;50.284;18.860;2024-01-11T00:23:12;142.50;;;66.30;;
62056;SDS011;48016;50.284;18.860;2024-01-11T00:25:39;150.90;;;68.70;;
62056;SDS011;48016;50.284;18.860;2024-01-11T00:28:05;145.60;;;66.20;;
62056;SDS011;48016;50.284;18.860;2024-01-11T00:30:32;144.20;;;64.60;;
62056;SDS011;48016;50.284;18.860;2024-01-11T00:32:58;145.10;;;70.10;;
62056;SDS011;48016;50.284;18.860;2024-01-11T00:35:25;150.60;;;69.50;;
62056;SDS011;48016;50.284;18.860;2024-01-11T00:37:52;143.80;;;66.30;;
62056;SDS011;48016;50.284;18.860;2024-01-11T00:40:18;148.00;;;65.40;;
62056;SDS011;48016;50.284;18.860;2024-01-11T00:42:45;137.80;;;67.70;;
62056;SDS011;48016;50.284;18.860;2024-01-11T00:45:11;146.50;;;68.10;;
62056;SDS011;48016;50.284;18.860;2024-01-11T00:47:38;150.10;;;68.30;;
62056;SDS011;48016;50.284;18.860;2024-01-11T00:50:05;141.70;;;67.20;;
62056;SDS011;48016;50.284;18.860;2024-01-11T00:52:32;152.80;;;73.70;;
62056;SDS011;48016;50.284;18.860;2024-01-11T00:54:58;150.40;;;70.50;;
62056;SDS011;48016;50.284;18.860;2024-01-11T00:57:25;156.90;;;71.70;;
62056;SDS011;48016;50.284;18.860;2024-01-11T00:59:51;151.20;;;72.50;;
62056;SDS011;48016;50.284;18.860;2024-01-11T01:02:19;153.10;;;71.60;;
62056;SDS011;48016;50.284;18.860;2024-01-11T01:04:46;162.20;;;75.30;;
62056;SDS011;48016;50.284;18.860;2024-01-11T01:07:13;158.80;;;73.10;;
62056;SDS011;48016;50.284;18.860;2024-01-11T01:09:40;166.90;;;78.00;;
62056;SDS011;48016;50.284;18.860;2024-01-11T01:12:06;165.10;;;72.20;;
62056;SDS011;48016;50.284;18.860;2024-01-11T01:14:33;166.60;;;80.20;;
62056;SDS011;48016;50.284;18.860;2024-01-11T01:16:59;161.70;;;76.00;;
62056;SDS011;48016;50.284;18.860;2024-01-11T01:19:26;167.30;;;76.00;;
62056;SDS011;48016;50.284;18.860;2024-01-11T01:21:52;165.20;;;75.20;;
62056;SDS011;48016;50.284;18.860;2024-01-11T01:24:19;155.00;;;70.90;;
62056;SDS011;48016;50.284;18.860;2024-01-11T01:26:46;151.60;;;71.00;;
62056;SDS011;48016;50.284;18.860;2024-01-11T01:29:12;143.30;;;69.80;;
62056;SDS011;48016;50.284;18.860;2024-01-11T01:31:40;146.70;;;70.00;;
62056;SDS011;48016;50.284;18.860;2024-01-11T01:34:07;152.40;;;71.40;;
62056;SDS011;48016;50.284;18.860;2024-01-11T01:36:34;145.50;;;69.10;;
62056;SDS011;48016;50.284;18.860;2024-01-11T01:39:00;140.20;;;66.70;;
62056;SDS011;48016;50.284;18.860;2024-01-11T01:41:27;144.90;;;67.30;;
62056;SDS011;48016;50.284;18.860;2024-01-11T01:43:53;143.00;;;67.00;;
62056;SDS011;48016;50.284;18.860;2024-01-11T01:46:22;134.50;;;63.70;;
62056;SDS011;48016;50.284;18.860;2024-01-11T01:48:50;145.30;;;66.40;;
62056;SDS011;48016;50.284;18.860;2024-01-11T01:51:19;137.00;;;64.60;;
62056;SDS011;48016;50.284;18.860;2024-01-11T01:53:46;137.90;;;65.10;;
62056;SDS011;48016;50.284;18.860;2024-01-11T01:56:13;134.40;;;63.00;;
62056;SDS011;48016;50.284;18.860;2024-01-11T01:58:41;143.20;;;63.90;;
62056;SDS011;48016;50.284;18.860;2024-01-11T02:01:09;137.00;;;64.90;;
62056;SDS011;48016;50.284;18.860;2024-01-11T02:03:36;141.50;;;64.90;;
62056;SDS011;48016;50.284;18.860;2024-01-11T02:06:04;136.40;;;64.30;;
62056;SDS011;48016;50.284;18.860;2024-01-11T02:08:31;129.90;;;62.90;;
62056;SDS011;48016;50.284;18.860;2024-01-11T02:11:01;135.30;;;63.60;;
62056;SDS011;48016;50.284;18.860;2024-01-11T02:13:28;136.40;;;64.10;;
62056;SDS011;48016;50.284;18.860;2024-01-11T02:15:54;138.30;;;65.90;;
62056;SDS011;48016;50.284;18.860;2024-01-11T02:18:21;142.00;;;64.70;;
62056;SDS011;48016;50.284;18.860;2024-01-11T02:20:48;141.00;;;65.70;;
62056;SDS011;48016;50.284;18.860;2024-01-11T02:23:16;142.70;;;67.00;;
62056;SDS011;48016;50.284;18.860;2024-01-11T02:25:45;144.40;;;67.90;;
62056;SDS011;48016;50.284;18.860;2024-01-11T02:28:12;141.40;;;67.40;;
62056;SDS011;48016;50.284;18.860;2024-01-11T02:30:38;135.40;;;65.50;;
62056;SDS011;48016;50.284;18.860;2024-01-11T02:33:05;132.80;;;65.50;;
62056;SDS011;48016;50.284;18.860;2024-01-11T02:35:32;141.50;;;66.50;;
62056;SDS011;48016;50.284;18.860;2024-01-11T02:38:00;136.90;;;65.10;;
62056;SDS011;48016;50.284;18.860;2024-01-11T02:40:27;139.10;;;68.90;;
62056;SDS011;48016;50.284;18.860;2024-01-11T02:42:55;141.00;;;68.10;;
62056;SDS011;48016;50.284;18.860;2024-01-11T02:45:22;144.80;;;69.20;;
62056;SDS011;48016;50.284;18.860;2024-01-11T02:47:48;145.10;;;67.30;;
62056;SDS011;48016;50.284;18.860;2024-01-11T02:50:15;136.60;;;65.90;;
62056;SDS011;48016;50.284;18.860;2024-01-11T02:52:42;139.60;;;65.20;;
62056;SDS011;48016;50.284;18.860;2024-01-11T02:55:08;135.00;;;66.40;;
62056;SDS011;48016;50.284;18.860;2024-01-11T02:57:35;138.30;;;67.40;;
62056;SDS011;48016;50.284;18.860;2024-01-11T03:00:02;141.60;;;66.30;;
62056;SDS011;48016;50.284;18.860;2024-01-11T03:02:28;139.20;;;64.30;;
62056;SDS011;48016;50.284;18.860;2024-01-11T03:04:55;135.40;;;63.00;;
62056;SDS011;48016;50.284;18.860;2024-01-11T03:07:22;140.20;;;65.20;;
62056;SDS011;48016;50.284;18.860;2024-01-11T03:09:48;145.20;;;66.40;;
62056;SDS011;48016;50.284;18.860;2024-01-11T03:12:15;135.10;;;65.50;;
62056;SDS011;48016;50.284;18.860;2024-01-11T03:14:41;134.90;;;63.20;;
62056;SDS011;48016;50.284;18.860;2024-01-11T03:17:11;132.00;;;63.70;;
62056;SDS011;48016;50.284;18.860;2024-01-11T03:19:40;132.30;;;64.60;;
62056;SDS011;48016;50.284;18.860;2024-01-11T03:22:07;126.00;;;62.50;;
62056;SDS011;48016;50.284;18.860;2024-01-11T03:24:37;134.10;;;60.80;;
62056;SDS011;48016;50.284;18.860;2024-01-11T03:27:04;133.10;;;63.40;;
62056;SDS011;48016;50.284;18.860;2024-01-11T03:29:32;139.60;;;65.00;;
62056;SDS011;48016;50.284;18.860;2024-01-11T03:31:58;132.80;;;64.30;;
62056;SDS011;48016;50.284;18.860;2024-01-11T03:34:25;127.10;;;61.70;;
62056;SDS011;48016;50.284;18.860;2024-01-11T03:36:52;119.60;;;59.40;;
62056;SDS011;48016;50.284;18.860;2024-01-11T03:39:18;119.00;;;57.80;;
62056;SDS011;48016;50.284;18.860;2024-01-11T03:41:45;119.30;;;59.60;;
62056;SDS011;48016;50.284;18.860;2024-01-11T03:44:12;126.50;;;60.30;;
62056;SDS011;48016;50.284;18.860;2024-01-11T03:46:39;117.00;;;54.60;;
62056;SDS011;48016;50.284;18.860;2024-01-11T03:49:05;114.00;;;57.20;;
62056;SDS011;48016;50.284;18.860;2024-01-11T03:51:34;116.50;;;56.50;;
62056;SDS011;48016;50.284;18.860;2024-01-11T03:54:01;119.20;;;57.60;;
62056;SDS011;48016;50.284;18.860;2024-01-11T03:56:27;114.10;;;57.70;;
62056;SDS011;48016;50.284;18.860;2024-01-11T03:58:54;116.70;;;56.90;;
62056;SDS011;48016;50.284;18.860;2024-01-11T04:01:21;115.50;;;56.90;;
62056;SDS011;48016;50.284;18.860;2024-01-11T04:03:48;115.30;;;54.50;;
62056;SDS011;48016;50.284;18.860;2024-01-11T04:06:19;115.20;;;54.00;;
62056;SDS011;48016;50.284;18.860;2024-01-11T04:08:48;111.20;;;53.30;;
62056;SDS011;48016;50.284;18.860;2024-01-11T04:13:41;110.20;;;52.80;;
62056;SDS011;48016;50.284;18.860;2024-01-11T04:16:08;110.60;;;52.00;;
62056;SDS011;48016;50.284;18.860;2024-01-11T04:18:34;108.40;;;52.40;;
62056;SDS011;48016;50.284;18.860;2024-01-11T04:21:01;107.10;;;54.80;;
62056;SDS011;48016;50.284;18.860;2024-01-11T04:23:28;113.90;;;55.20;;
62056;SDS011;48016;50.284;18.860;2024-01-11T04:25:54;109.10;;;56.20;;
62056;SDS011;48016;50.284;18.860;2024-01-11T04:28:21;106.30;;;52.40;;
62056;SDS011;48016;50.284;18.860;2024-01-11T04:30:47;108.90;;;54.10;;
62056;SDS011;48016;50.284;18.860;2024-01-11T04:33:14;107.60;;;54.20;;
62056;SDS011;48016;50.284;18.860;2024-01-11T04:35:40;105.90;;;54.00;;
62056;SDS011;48016;50.284;18.860;2024-01-11T04:38:07;109.40;;;54.10;;
62056;SDS011;48016;50.284;18.860;2024-01-11T04:40:33;113.70;;;54.20;;
62056;SDS011;48016;50.284;18.860;2024-01-11T04:43:00;110.50;;;53.90;;
62056;SDS011;48016;50.284;18.860;2024-01-11T04:45:27;109.10;;;52.90;;
62056;SDS011;48016;50.284;18.860;2024-01-11T04:47:53;107.50;;;54.80;;
62056;SDS011;48016;50.284;18.860;2024-01-11T04:50:20;108.40;;;56.60;;
62056;SDS011;48016;50.284;18.860;2024-01-11T04:52:46;126.00;;;61.00;;
62056;SDS011;48016;50.284;18.860;2024-01-11T04:55:13;114.40;;;55.70;;
62056;SDS011;48016;50.284;18.860;2024-01-11T04:57:39;108.30;;;55.40;;
62056;SDS011;48016;50.284;18.860;2024-01-11T05:00:06;105.60;;;54.20;;
62056;SDS011;48016;50.284;18.860;2024-01-11T05:02:33;106.70;;;55.80;;
62056;SDS011;48016;50.284;18.860;2024-01-11T05:05:00;108.10;;;52.10;;
62056;SDS011;48016;50.284;18.860;2024-01-11T05:07:27;108.80;;;55.80;;
62056;SDS011;48016;50.284;18.860;2024-01-11T05:09:54;114.20;;;56.90;;
62056;SDS011;48016;50.284;18.860;2024-01-11T05:12:20;111.80;;;54.30;;
62056;SDS011;48016;50.284;18.860;2024-01-11T05:14:47;115.00;;;55.30;;
62056;SDS011;48016;50.284;18.860;2024-01-11T05:17:13;110.90;;;53.40;;
62056;SDS011;48016;50.284;18.860;2024-01-11T05:19:40;114.50;;;56.20;;
62056;SDS011;48016;50.284;18.860;2024-01-11T05:22:07;115.40;;;54.20;;
62056;SDS011;48016;50.284;18.860;2024-01-11T05:24:33;108.50;;;53.20;;
62056;SDS011;48016;50.284;18.860;2024-01-11T05:27:00;111.90;;;56.10;;
62056;SDS011;48016;50.284;18.860;2024-01-11T05:29:27;116.00;;;57.30;;
62056;SDS011;48016;50.284;18.860;2024-01-11T05:31:53;114.00;;;54.30;;
62056;SDS011;48016;50.284;18.860;2024-01-11T05:34:20;116.60;;;53.30;;
62056;SDS011;48016;50.284;18.860;2024-01-11T05:36:46;117.00;;;54.50;;
62056;SDS011;48016;50.284;18.860;2024-01-11T05:39:13;117.00;;;57.40;;
62056;SDS011;48016;50.284;18.860;2024-01-11T05:41:43;115.30;;;56.30;;
62056;SDS011;48016;50.284;18.860;2024-01-11T05:44:10;116.30;;;55.10;;
62056;SDS011;48016;50.284;18.860;2024-01-11T05:46:37;115.60;;;53.80;;
62056;SDS011;48016;50.284;18.860;2024-01-11T05:49:04;115.80;;;54.00;;
62056;SDS011;48016;50.284;18.860;2024-01-11T05:51:30;115.40;;;55.30;;
62056;SDS011;48016;50.284;18.860;2024-01-11T05:53:57;114.40;;;53.90;;
62056;SDS011;48016;50.284;18.860;2024-01-11T05:56:24;106.30;;;51.20;;
62056;SDS011;48016;50.284;18.860;2024-01-11T05:58:51;113.50;;;56.30;;
62056;SDS011;48016;50.284;18.860;2024-01-11T06:01:17;117.20;;;54.30;;
62056;SDS011;48016;50.284;18.860;2024-01-11T06:03:44;116.60;;;56.50;;
62056;SDS011;48016;50.284;18.860;2024-01-11T06:06:11;113.10;;;53.50;;
62056;SDS011;48016;50.284;18.860;2024-01-11T06:08:37;118.00;;;55.10;;
62056;SDS011;48016;50.284;18.860;2024-01-11T06:11:04;120.50;;;56.80;;
62056;SDS011;48016;50.284;18.860;2024-01-11T06:13:31;118.10;;;55.30;;
62056;SDS011;48016;50.284;18.860;2024-01-11T06:15:57;115.20;;;57.80;;
62056;SDS011;48016;50.284;18.860;2024-01-11T06:18:24;112.40;;;54.90;;
62056;SDS011;48016;50.284;18.860;2024-01-11T06:20:50;110.80;;;56.20;;
62056;SDS011;48016;50.284;18.860;2024-01-11T06:23:17;112.30;;;55.40;;
62056;SDS011;48016;50.284;18.860;2024-01-11T06:25:45;116.00;;;57.00;;
62056;SDS011;48016;50.284;18.860;2024-01-11T06:28:12;116.40;;;56.40;;
62056;SDS011;48016;50.284;18.860;2024-01-11T06:30:39;111.80;;;53.10;;
62056;SDS011;48016;50.284;18.860;2024-01-11T06:33:05;104.20;;;52.60;;
62056;SDS011;48016;50.284;18.860;2024-01-11T06:35:32;110.80;;;52.20;;
62056;SDS011;48016;50.284;18.860;2024-01-11T06:37:59;100.00;;;49.40;;
62056;SDS011;48016;50.284;18.860;2024-01-11T06:40:25;95.70;;;49.00;;
62056;SDS011;48016;50.284;18.860;2024-01-11T06:42:52;97.50;;;48.20;;
62056;SDS011;48016;50.284;18.860;2024-01-11T06:45:18;89.30;;;46.30;;
62056;SDS011;48016;50.284;18.860;2024-01-11T06:47:45;93.60;;;46.00;;
62056;SDS011;48016;50.284;18.860;2024-01-11T06:50:12;87.80;;;44.20;;
62056;SDS011;48016;50.284;18.860;2024-01-11T06:52:40;98.90;;;49.40;;
62056;SDS011;48016;50.284;18.860;2024-01-11T06:55:06;93.30;;;46.20;;
62056;SDS011;48016;50.284;18.860;2024-01-11T06:57:33;92.90;;;46.40;;
62056;SDS011;48016;50.284;18.860;2024-01-11T07:00:00;92.00;;;47.20;;
62056;SDS011;48016;50.284;18.860;2024-01-11T07:02:27;97.40;;;49.00;;
62056;SDS011;48016;50.284;18.860;2024-01-11T07:04:54;93.30;;;47.80;;
62056;SDS011;48016;50.284;18.860;2024-01-11T07:07:20;84.30;;;42.10;;
62056;SDS011;48016;50.284;18.860;2024-01-11T07:09:47;86.80;;;44.60;;
62056;SDS011;48016;50.284;18.860;2024-01-11T07:12:13;91.60;;;41.70;;
62056;SDS011;48016;50.284;18.860;2024-01-11T07:14:40;83.00;;;40.90;;
62056;SDS011;48016;50.284;18.860;2024-01-11T07:17:06;83.40;;;41.70;;
62056;SDS011;48016;50.284;18.860;2024-01-11T07:19:33;86.20;;;42.00;;
62056;SDS011;48016;50.284;18.860;2024-01-11T07:22:00;83.50;;;41.80;;
62056;SDS011;48016;50.284;18.860;2024-01-11T07:24:26;84.50;;;41.70;;
62056;SDS011;48016;50.284;18.860;2024-01-11T07:26:53;90.20;;;42.30;;
62056;SDS011;48016;50.284;18.860;2024-01-11T07:29:20;86.10;;;40.90;;
62056;SDS011;48016;50.284;18.860;2024-01-11T07:31:46;94.40;;;43.60;;
62056;SDS011;48016;50.284;18.860;2024-01-11T07:34:13;90.50;;;43.60;;
62056;SDS011;48016;50.284;18.860;2024-01-11T07:36:39;85.40;;;41.50;;
62056;SDS011;48016;50.284;18.860;2024-01-11T07:39:06;81.40;;;41.20;;
62056;SDS011;48016;50.284;18.860;2024-01-11T07:41:33;86.80;;;41.50;;
62056;SDS011;48016;50.284;18.860;2024-01-11T07:43:59;88.50;;;43.20;;
62056;SDS011;48016;50.284;18.860;2024-01-11T07:46:26;85.40;;;40.80;;
62056;SDS011;48016;50.284;18.860;2024-01-11T07:48:52;88.00;;;40.60;;
62056;SDS011;48016;50.284;18.860;2024-01-11T07:51:19;86.70;;;42.50;;
62056;SDS011;48016;50.284;18.860;2024-01-11T07:53:46;85.20;;;40.40;;
62056;SDS011;48016;50.284;18.860;2024-01-11T07:56:13;81.20;;;39.20;;
62056;SDS011;48016;50.284;18.860;2024-01-11T07:58:40;82.90;;;39.80;;
62056;SDS011;48016;50.284;18.860;2024-01-11T08:06:01;79.20;;;38.80;;
62056;SDS011;48016;50.284;18.860;2024-01-11T08:08:28;85.50;;;40.70;;
62056;SDS011;48016;50.284;18.860;2024-01-11T08:10:55;78.00;;;39.50;;
62056;SDS011;48016;50.284;18.860;2024-01-11T08:13:21;86.90;;;39.00;;
62056;SDS011;48016;50.284;18.860;2024-01-11T08:15:48;86.00;;;41.50;;
62056;SDS011;48016;50.284;18.860;2024-01-11T08:18:14;90.50;;;42.40;;
62056;SDS011;48016;50.284;18.860;2024-01-11T08:20:41;96.80;;;42.20;;
62056;SDS011;48016;50.284;18.860;2024-01-11T08:23:08;95.50;;;42.80;;
62056;SDS011;48016;50.284;18.860;2024-01-11T08:25:34;83.70;;;42.80;;
62056;SDS011;48016;50.284;18.860;2024-01-11T08:28:01;84.80;;;43.60;;
62056;SDS011;48016;50.284;18.860;2024-01-11T08:30:29;88.50;;;43.40;;
62056;SDS011;48016;50.284;18.860;2024-01-11T08:32:55;83.40;;;42.20;;
62056;SDS011;48016;50.284;18.860;2024-01-11T08:35:22;90.60;;;42.90;;
62056;SDS011;48016;50.284;18.860;2024-01-11T08:37:49;89.90;;;43.30;;
62056;SDS011;48016;50.284;18.860;2024-01-11T08:40:15;89.70;;;44.70;;
62056;SDS011;48016;50.284;18.860;2024-01-11T08:42:42;92.40;;;43.50;;
62056;SDS011;48016;50.284;18.860;2024-01-11T08:45:09;88.90;;;43.30;;
62056;SDS011;48016;50.284;18.860;2024-01-11T08:47:35;90.40;;;44.20;;
62056;SDS011;48016;50.284;18.860;2024-01-11T08:50:04;92.00;;;42.90;;
62056;SDS011;48016;50.284;18.860;2024-01-11T08:52:32;84.70;;;41.60;;
62056;SDS011;48016;50.284;18.860;2024-01-11T08:54:59;86.30;;;42.80;;
62056;SDS011;48016;50.284;18.860;2024-01-11T08:57:26;95.00;;;42.30;;
62056;SDS011;48016;50.284;18.860;2024-01-11T08:59:53;94.10;;;44.80;;
62056;SDS011;48016;50.284;18.860;2024-01-11T09:02:20;91.00;;;44.20;;
62056;SDS011;48016;50.284;18.860;2024-01-11T09:04:47;95.60;;;44.30;;
62056;SDS011;48016;50.284;18.860;2024-01-11T09:07:14;97.20;;;44.90;;
62056;SDS011;48016;50.284;18.860;2024-01-11T09:09:41;90.30;;;41.60;;
62056;SDS011;48016;50.284;18.860;2024-01-11T09:12:08;89.20;;;44.30;;
62056;SDS011;48016;50.284;18.860;2024-01-11T09:14:35;93.70;;;42.90;;
62056;SDS011;48016;50.284;18.860;2024-01-11T09:17:02;90.30;;;42.90;;
62056;SDS011;48016;50.284;18.860;2024-01-11T09:19:28;87.80;;;41.70;;
62056;SDS011;48016;50.284;18.860;2024-01-11T09:21:55;84.40;;;39.40;;
62056;SDS011;48016;50.284;18.860;2024-01-11T09:24:21;88.80;;;41.30;;
62056;SDS011;48016;50.284;18.860;2024-01-11T09:26:48;94.00;;;41.60;;
62056;SDS011;48016;50.284;18.860;2024-01-11T09:29:16;89.00;;;39.60;;
62056;SDS011;48016;50.284;18.860;2024-01-11T09:31:43;85.50;;;41.60;;
62056;SDS011;48016;50.284;18.860;2024-01-11T09:34:09;97.10;;;45.50;;
62056;SDS011;48016;50.284;18.860;2024-01-11T09:36:37;85.20;;;40.00;;
62056;SDS011;48016;50.284;18.860;2024-01-11T09:39:05;90.10;;;40.70;;
62056;SDS011;48016;50.284;18.860;2024-01-11T09:41:32;81.20;;;38.80;;
62056;SDS011;48016;50.284;18.860;2024-01-11T09:44:02;79.00;;;38.60;;
62056;SDS011;48016;50.284;18.860;2024-01-11T09:46:31;87.80;;;41.40;;
62056;SDS011;48016;50.284;18.860;2024-01-11T09:48:58;94.50;;;41.90;;
62056;SDS011;48016;50.284;18.860;2024-01-11T09:51:26;88.10;;;42.10;;
62056;SDS011;48016;50.284;18.860;2024-01-11T09:53:55;89.20;;;44.80;;
62056;SDS011;48016;50.284;18.860;2024-01-11T09:58:50;91.10;;;44.90;;
62056;SDS011;48016;50.284;18.860;2024-01-11T10:01:17;92.00;;;43.60;;
62056;SDS011;48016;50.284;18.860;2024-01-11T10:03:44;83.70;;;39.00;;
62056;SDS011;48016;50.284;18.860;2024-01-11T10:06:12;85.90;;;38.00;;
62056;SDS011;48016;50.284;18.860;2024-01-11T10:11:07;76.30;;;36.50;;
62056;SDS011;48016;50.284;18.860;2024-01-11T10:13:33;69.50;;;33.60;;
62056;SDS011;48016;50.284;18.860;2024-01-11T10:16:08;63.50;;;31.60;;
62056;SDS011;48016;50.284;18.860;2024-01-11T10:18:39;59.00;;;27.00;;
62056;SDS011;48016;50.284;18.860;2024-01-11T10:21:06;56.70;;;27.30;;
62056;SDS011;48016;50.284;18.860;2024-01-11T10:23:33;55.20;;;27.40;;
62056;SDS011;48016;50.284;18.860;2024-01-11T10:26:00;58.20;;;28.00;;
62056;SDS011;48016;50.284;18.860;2024-01-11T10:28:27;62.50;;;28.30;;
62056;SDS011;48016;50.284;18.860;2024-01-11T10:30:54;56.30;;;28.10;;
62056;SDS011;48016;50.284;18.860;2024-01-11T10:33:24;58.50;;;26.70;;
62056;SDS011;48016;50.284;18.860;2024-01-11T10:35:51;54.80;;;24.50;;
62056;SDS011;48016;50.284;18.860;2024-01-11T10:38:17;52.00;;;25.10;;
62056;SDS011;48016;50.284;18.860;2024-01-11T10:40:44;51.00;;;26.10;;
62056;SDS011;48016;50.284;18.860;2024-01-11T10:43:12;51.30;;;25.60;;
62056;SDS011;48016;50.284;18.860;2024-01-11T10:45:43;56.40;;;26.60;;
62056;SDS011;48016;50.284;18.860;2024-01-11T10:48:14;53.10;;;26.20;;
62056;SDS011;48016;50.284;18.860;2024-01-11T10:50:42;50.60;;;25.40;;
62056;SDS011;48016;50.284;18.860;2024-01-11T10:53:34;50.40;;;24.80;;
62056;SDS011;48016;50.284;18.860;2024-01-11T10:56:08;48.30;;;23.70;;
62056;SDS011;48016;50.284;18.860;2024-01-11T10:58:35;53.50;;;25.80;;
62056;SDS011;48016;50.284;18.860;2024-01-11T11:01:03;52.10;;;24.90;;
62056;SDS011;48016;50.284;18.860;2024-01-11T11:03:31;48.80;;;24.30;;
62056;SDS011;48016;50.284;18.860;2024-01-11T11:06:00;45.50;;;21.50;;
62056;SDS011;48016;50.284;18.860;2024-01-11T11:08:27;40.40;;;18.80;;
62056;SDS011;48016;50.284;18.860;2024-01-11T11:10:57;46.80;;;21.20;;
62056;SDS011;48016;50.284;18.860;2024-01-11T11:13:26;42.30;;;19.50;;
62056;SDS011;48016;50.284;18.860;2024-01-11T11:15:53;40.70;;;18.20;;
62056;SDS011;48016;50.284;18.860;2024-01-11T11:18:20;37.20;;;16.80;;
62056;SDS011;48016;50.284;18.860;2024-01-11T11:20:47;32.50;;;17.50;;
62056;SDS011;48016;50.284;18.860;2024-01-11T11:23:15;35.40;;;17.70;;
62056;SDS011;48016;50.284;18.860;2024-01-11T11:25:46;36.80;;;17.60;;
62056;SDS011;48016;50.284;18.860;2024-01-11T11:28:17;36.90;;;17.00;;
62056;SDS011;48016;50.284;18.860;2024-01-11T11:30:44;42.90;;;17.60;;
62056;SDS011;48016;50.284;18.860;2024-01-11T11:33:19;37.60;;;18.60;;
62056;SDS011;48016;50.284;18.860;2024-01-11T11:35:47;36.40;;;17.90;;
62056;SDS011;48016;50.284;18.860;2024-01-11T11:40:46;30.90;;;15.30;;
62056;SDS011;48016;50.284;18.860;2024-01-11T11:43:18;31.70;;;15.70;;
62056;SDS011;48016;50.284;18.860;2024-01-11T11:45:47;35.00;;;17.20;;
62056;SDS011;48016;50.284;18.860;2024-01-11T11:51:10;35.80;;;16.80;;
62056;SDS011;48016;50.284;18.860;2024-01-11T11:53:39;36.10;;;17.50;;
62056;SDS011;48016;50.284;18.860;2024-01-11T11:56:07;39.30;;;18.30;;
62056;SDS011;48016;50.284;18.860;2024-01-11T11:58:53;40.20;;;19.10;;
62056;SDS011;48016;50.284;18.860;2024-01-11T12:01:21;41.00;;;19.50;;
62056;SDS011;48016;50.284;18.860;2024-01-11T12:03:47;41.40;;;20.10;;
62056;SDS011;48016;50.284;18.860;2024-01-11T12:06:17;40.10;;;18.70;;
62056;SDS011;48016;50.284;18.860;2024-01-11T12:08:45;42.30;;;20.00;;
62056;SDS011;48016;50.284;18.860;2024-01-11T12:11:14;42.50;;;18.40;;
62056;SDS011;48016;50.284;18.860;2024-01-11T12:13:43;37.30;;;19.10;;
62056;SDS011;48016;50.284;18.860;2024-01-11T12:16:11;43.40;;;20.80;;
62056;SDS011;48016;50.284;18.860;2024-01-11T12:18:38;40.30;;;19.60;;
62056;SDS011;48016;50.284;18.860;2024-01-11T12:21:05;44.20;;;20.00;;
62056;SDS011;48016;50.284;18.860;2024-01-11T12:23:34;46.60;;;21.10;;
62056;SDS011;48016;50.284;18.860;2024-01-11T12:26:01;43.20;;;20.50;;
62056;SDS011;48016;50.284;18.860;2024-01-11T12:28:31;46.30;;;22.00;;
62056;SDS011;48016;50.284;18.860;2024-01-11T12:33:28;44.50;;;20.70;;
62056;SDS011;48016;50.284;18.860;2024-01-11T12:35:55;49.80;;;22.50;;
62056;SDS011;48016;50.284;18.860;2024-01-11T12:38:22;48.50;;;22.10;;
62056;SDS011;48016;50.284;18.860;2024-01-11T12:40:48;51.90;;;22.90;;
62056;SDS011;48016;50.284;18.860;2024-01-11T12:43:16;45.80;;;22.70;;
62056;SDS011;48016;50.284;18.860;2024-01-11T12:45:43;46.20;;;21.40;;
62056;SDS011;48016;50.284;18.860;2024-01-11T12:48:10;47.90;;;23.10;;
62056;SDS011;48016;50.284;18.860;2024-01-11T12:50:40;49.70;;;22.20;;
62056;SDS011;48016;50.284;18.860;2024-01-11T12:53:07;47.40;;;23.90;;
62056;SDS011;48016;50.284;18.860;2024-01-11T12:55:35;47.60;;;21.70;;
62056;SDS011;48016;50.284;18.860;2024-01-11T12:58:06;48.50;;;23.00;;
62056;SDS011;48016;50.284;18.860;2024-01-11T13:00:35;47.50;;;21.60;;
62056;SDS011;48016;50.284;18.860;2024-01-11T13:03:03;43.40;;;20.90;;
62056;SDS011;48016;50.284;18.860;2024-01-11T13:05:31;50.10;;;22.40;;
62056;SDS011;48016;50.284;18.860;2024-01-11T13:08:02;44.60;;;21.20;;
62056;SDS011;48016;50.284;18.860;2024-01-11T13:10:32;46.60;;;23.00;;
62056;SDS011;48016;50.284;18.860;2024-01-11T13:12:58;51.50;;;23.50;;
62056;SDS011;48016;50.284;18.860;2024-01-11T13:17:52;51.50;;;23.40;;
62056;SDS011;48016;50.284;18.860;2024-01-11T13:20:19;45.70;;;21.60;;
62056;SDS011;48016;50.284;18.860;2024-01-11T13:22:46;44.90;;;22.20;;
62056;SDS011;48016;50.284;18.860;2024-01-11T13:25:12;47.70;;;23.00;;
62056;SDS011;48016;50.284;18.860;2024-01-11T13:27:39;49.00;;;22.50;;
62056;SDS011;48016;50.284;18.860;2024-01-11T13:30:06;53.40;;;23.60;;
62056;SDS011;48016;50.284;18.860;2024-01-11T13:32:34;45.20;;;22.90;;
62056;SDS011;48016;50.284;18.860;2024-01-11T13:35:01;44.60;;;23.60;;
62056;SDS011;48016;50.284;18.860;2024-01-11T13:37:28;50.30;;;23.30;;
62056;SDS011;48016;50.284;18.860;2024-01-11T13:39:54;48.70;;;23.60;;
62056;SDS011;48016;50.284;18.860;2024-01-11T13:42:21;45.30;;;21.40;;
62056;SDS011;48016;50.284;18.860;2024-01-11T13:44:48;44.00;;;22.60;;
62056;SDS011;48016;50.284;18.860;2024-01-11T13:47:14;49.00;;;23.10;;
62056;SDS011;48016;50.284;18.860;2024-01-11T13:49:41;43.00;;;22.10;;
62056;SDS011;48016;50.284;18.860;2024-01-11T13:52:07;45.40;;;21.20;;
62056;SDS011;48016;50.284;18.860;2024-01-11T13:54:34;42.90;;;21.30;;
62056;SDS011;48016;50.284;18.860;2024-01-11T13:57:00;48.10;;;21.20;;
62056;SDS011;48016;50.284;18.860;2024-01-11T13:59:28;44.80;;;21.50;;
62056;SDS011;48016;50.284;18.860;2024-01-11T14:01:55;47.70;;;21.80;;
62056;SDS011;48016;50.284;18.860;2024-01-11T14:04:22;44.00;;;20.90;;
62056;SDS011;48016;50.284;18.860;2024-01-11T14:06:49;44.40;;;22.00;;
62056;SDS011;48016;50.284;18.860;2024-01-11T14:09:17;40.30;;;21.70;;
62056;SDS011;48016;50.284;18.860;2024-01-11T14:11:44;45.00;;;21.40;;
62056;SDS011;48016;50.284;18.860;2024-01-11T14:14:11;41.00;;;19.40;;
62056;SDS011;48016;50.284;18.860;2024-01-11T14:16:37;44.50;;;20.30;;
62056;SDS011;48016;50.284;18.860;2024-01-11T14:19:04;44.20;;;21.00;;
62056;SDS011;48016;50.284;18.860;2024-01-11T14:21:30;44.40;;;21.70;;
62056;SDS011;48016;50.284;18.860;2024-01-11T14:23:57;46.00;;;20.10;;
62056;SDS011;48016;50.284;18.860;2024-01-11T14:26:24;36.40;;;19.70;;